Time;durP1;ratioP1;P1;durP2;ratioP2;P2;SDS_P1;SDS_P2;PMS_P1;PMS_P2;Temp;Humidity;BMP_temperature;BMP_pressure;BME280_temperature;BME280_humidity;BME280_pressure;Samples;Min_cycle;Max_cycle;Signal;HPM_P1;HPM_P2
2024/01/17 00:02:11;;;;;;;32.80;17.33;;;;;;;;;;5033818;28;20113;-73
2024/01/17 00:04:36;;;;;;;36.10;18.50;;;;;;;;;;5033480;28;20088;-73
2024/01/17 00:07:02;;;;;;;40.95;21.25;;;;;;;;;;5016150;28;20033;-73
2024/01/17 00:09:27;;;;;;;40.95;20.70;;;;;;;;;;5015840;28;20084;-73
2024/01/17 00:11:52;;;;;;;39.35;20.35;;;;;;;;;;5032583;28;20029;-72
2024/01/17 00:14:18;;;;;;;37.75;19.83;;;;;;;;;;5031396;28;20026;-72
2024/01/17 00:16:43;;;;;;;39.78;20.60;;;;;;;;;;5031746;28;20403;-72
2024/01/17 00:19:09;;;;;;;56.83;32.35;;;;;;;;;;5031430;28;20538;-72
2024/01/17 00:21:34;;;;;;;68.47;34.55;;;;;;;;;;5013613;28;20052;-72
2024/01/17 00:23:59;;;;;;;51.22;27.45;;;;;;;;;;5031444;28;20037;-72
2024/01/17 00:26:25;;;;;;;50.92;28.50;;;;;;;;;;5031208;28;20518;-72
2024/01/17 00:28:50;;;;;;;40.67;20.17;;;;;;;;;;5031698;28;20084;-72
2024/01/17 00:31:16;;;;;;;42.13;20.15;;;;;;;;;;5033788;28;20373;-72
2024/01/17 00:33:41;;;;;;;33.20;16.75;;;;;;;;;;5014202;28;20112;-72
2024/01/17 00:36:06;;;;;;;45.83;20.67;;;;;;;;;;5031235;28;20034;-72
2024/01/17 00:38:36;;;;;;;44.17;24.15;;;;;;;;;;5031173;28;20026;-72
2024/01/17 00:41:04;;;;;;;37.37;21.00;;;;;;;;;;5031189;28;20048;-72
2024/01/17 00:43:30;;;;;;;35.17;19.30;;;;;;;;;;5031159;28;20075;-73
2024/01/17 00:45:55;;;;;;;31.50;18.45;;;;;;;;;;5031202;28;20025;-71
2024/01/17 00:48:21;;;;;;;42.75;22.00;;;;;;;;;;5032583;28;20036;-70
2024/01/17 00:50:46;;;;;;;31.63;17.77;;;;;;;;;;5037132;28;20029;-71
2024/01/17 00:53:11;;;;;;;34.00;18.38;;;;;;;;;;5036778;28;20109;-71
2024/01/17 00:55:37;;;;;;;30.40;15.43;;;;;;;;;;5036782;28;20044;-71
2024/01/17 00:58:03;;;;;;;26.88;14.43;;;;;;;;;;5037254;28;20060;-71
2024/01/17 01:00:28;;;;;;;30.75;16.20;;;;;;;;;;5036899;28;20060;-71
2024/01/17 01:02:53;;;;;;;28.67;15.27;;;;;;;;;;5018876;28;20061;-71
2024/01/17 01:05:19;;;;;;;29.27;15.30;;;;;;;;;;5019211;28;20033;-71
2024/01/17 01:07:44;;;;;;;27.13;13.93;;;;;;;;;;5037094;28;20040;-71
2024/01/17 01:10:10;;;;;;;28.25;14.02;;;;;;;;;;5036824;28;20075;-69
2024/01/17 01:12:35;;;;;;;25.42;14.18;;;;;;;;;;5036759;28;20052;-68
2024/01/17 01:15:01;;;;;;;39.30;19.60;;;;;;;;;;5036409;28;20072;-68
2024/01/17 01:17:26;;;;;;;28.30;16.25;;;;;;;;;;5018753;28;20101;-69
2024/01/17 01:19:51;;;;;;;29.88;15.10;;;;;;;;;;5036540;28;20030;-69
2024/01/17 01:22:17;;;;;;;33.42;18.10;;;;;;;;;;5036565;28;20029;-70
2024/01/17 01:24:42;;;;;;;36.90;17.60;;;;;;;;;;5036017;28;20489;-70
2024/01/17 01:27:07;;;;;;;28.15;15.05;;;;;;;;;;5036742;28;20037;-70
2024/01/17 01:29:33;;;;;;;25.88;13.10;;;;;;;;;;5036162;28;20112;-70
2024/01/17 01:31:58;;;;;;;24.02;14.00;;;;;;;;;;5036374;28;20032;-70
2024/01/17 01:34:24;;;;;;;23.65;12.98;;;;;;;;;;5036074;28;20025;-71
2024/01/17 01:36:49;;;;;;;28.45;14.98;;;;;;;;;;5036337;28;20366;-72
2024/01/17 01:39:15;;;;;;;32.33;17.27;;;;;;;;;;5035927;28;20459;-72
2024/01/17 01:41:40;;;;;;;35.33;17.05;;;;;;;;;;5036234;28;20080;-70
2024/01/17 01:44:06;;;;;;;33.30;18.75;;;;;;;;;;5035896;28;20021;-72
2024/01/17 01:46:31;;;;;;;34.88;17.98;;;;;;;;;;5036116;28;20037;-71
2024/01/17 01:48:57;;;;;;;30.15;16.80;;;;;;;;;;5035824;28;20032;-70
2024/01/17 01:51:23;;;;;;;34.38;17.55;;;;;;;;;;5036020;28;20045;-70
2024/01/17 01:53:49;;;;;;;33.45;18.15;;;;;;;;;;5036032;28;20381;-70
2024/01/17 01:56:19;;;;;;;31.70;17.70;;;;;;;;;;5018314;28;20029;-68
2024/01/17 01:58:46;;;;;;;37.08;18.30;;;;;;;;;;5036187;28;20034;-72
2024/01/17 02:01:14;;;;;;;34.03;18.33;;;;;;;;;;5017484;28;20029;-71
2024/01/17 02:03:43;;;;;;;35.92;17.95;;;;;;;;;;5017853;28;20053;-71
2024/01/17 02:06:09;;;;;;;31.23;16.38;;;;;;;;;;5035772;28;20060;-71
2024/01/17 02:08:35;;;;;;;36.70;18.20;;;;;;;;;;5035733;28;20041;-71
2024/01/17 02:11:00;;;;;;;36.78;19.33;;;;;;;;;;5035648;28;20045;-71
2024/01/17 02:13:26;;;;;;;40.83;20.58;;;;;;;;;;5016572;28;20034;-70
2024/01/17 02:15:54;;;;;;;37.33;20.02;;;;;;;;;;5013756;28;20038;-64
2024/01/17 02:18:19;;;;;;;39.70;20.15;;;;;;;;;;5013879;28;20085;-64
2024/01/17 02:20:45;;;;;;;34.67;18.98;;;;;;;;;;5013369;28;20034;-64
2024/01/17 02:23:20;;;;;;;41.22;21.55;;;;;;;;;;5013376;28;20034;-70
2024/01/17 02:25:46;;;;;;;36.13;19.33;;;;;;;;;;5013255;28;20556;-70
2024/01/17 02:28:11;;;;;;;35.17;17.85;;;;;;;;;;4995742;28;20029;-70
2024/01/17 02:30:37;;;;;;;35.05;18.35;;;;;;;;;;5013218;28;20030;-70
2024/01/17 02:33:02;;;;;;;34.58;18.65;;;;;;;;;;5013403;28;20018;-70
2024/01/17 02:35:27;;;;;;;38.38;18.58;;;;;;;;;;5013263;28;20034;-69
2024/01/17 02:37:53;;;;;;;37.38;18.85;;;;;;;;;;4996382;28;20038;-68
2024/01/17 02:40:18;;;;;;;33.88;18.48;;;;;;;;;;4995940;28;20084;-68
2024/01/17 02:42:44;;;;;;;41.00;20.13;;;;;;;;;;4996145;28;20500;-68
2024/01/17 02:45:09;;;;;;;35.38;19.98;;;;;;;;;;5014406;28;20441;-68
2024/01/17 02:47:35;;;;;;;41.13;20.55;;;;;;;;;;5015219;28;20018;-68
2024/01/17 02:50:00;;;;;;;36.15;18.90;;;;;;;;;;5015138;28;20034;-68
2024/01/17 02:52:25;;;;;;;33.13;17.23;;;;;;;;;;4997136;28;20537;-68
2024/01/17 02:54:52;;;;;;;30.85;16.25;;;;;;;;;;4997190;28;20545;-68
2024/01/17 02:57:20;;;;;;;39.15;19.88;;;;;;;;;;5014674;28;20034;-68
2024/01/17 02:59:45;;;;;;;91.80;51.90;;;;;;;;;;5014851;28;20040;-70
2024/01/17 03:02:11;;;;;;;104.35;64.95;;;;;;;;;;5014616;28;20026;-69
2024/01/17 03:04:36;;;;;;;147.15;94.13;;;;;;;;;;4997426;28;20045;-68
2024/01/17 03:07:02;;;;;;;135.65;88.57;;;;;;;;;;4997257;28;20454;-64
2024/01/17 03:09:28;;;;;;;104.03;65.10;;;;;;;;;;5014494;28;20492;-64
2024/01/17 03:11:53;;;;;;;97.25;64.65;;;;;;;;;;5014337;28;20038;-64
2024/01/17 03:14:18;;;;;;;84.47;54.90;;;;;;;;;;5014417;28;20034;-64
2024/01/17 03:16:45;;;;;;;85.63;56.10;;;;;;;;;;5014611;28;20051;-64
2024/01/17 03:19:13;;;;;;;70.03;45.38;;;;;;;;;;5014523;28;20026;-65
2024/01/17 03:21:43;;;;;;;56.38;31.75;;;;;;;;;;4996680;28;20056;-64
2024/01/17 03:24:08;;;;;;;54.17;32.15;;;;;;;;;;5014310;28;20108;-65
2024/01/17 03:26:34;;;;;;;41.38;23.30;;;;;;;;;;5014129;28;20125;-65
2024/01/17 03:28:59;;;;;;;38.35;22.27;;;;;;;;;;5014249;28;20110;-65
2024/01/17 03:31:24;;;;;;;37.15;20.67;;;;;;;;;;5014157;28;20096;-65
2024/01/17 03:33:50;;;;;;;35.95;19.90;;;;;;;;;;5014410;28;20037;-66
2024/01/17 03:36:15;;;;;;;37.83;19.65;;;;;;;;;;5014090;28;20026;-65
2024/01/17 03:38:40;;;;;;;41.40;20.70;;;;;;;;;;5014061;28;20469;-66
2024/01/17 03:41:06;;;;;;;39.13;21.23;;;;;;;;;;4997039;28;20382;-65
2024/01/17 03:43:31;;;;;;;41.63;22.15;;;;;;;;;;4996390;28;20087;-65
2024/01/17 03:45:57;;;;;;;41.83;23.90;;;;;;;;;;4996364;28;20132;-65
2024/01/17 03:48:22;;;;;;;53.28;29.60;;;;;;;;;;5014450;28;20030;-65
2024/01/17 03:50:47;;;;;;;49.67;29.38;;;;;;;;;;4996281;28;20036;-66
2024/01/17 03:53:13;;;;;;;45.58;26.08;;;;;;;;;;5014146;28;20021;-67
2024/01/17 03:55:38;;;;;;;34.40;20.25;;;;;;;;;;5014395;28;20034;-67
2024/01/17 03:58:03;;;;;;;37.50;21.23;;;;;;;;;;4996209;28;20033;-67
2024/01/17 04:00:31;;;;;;;36.53;20.13;;;;;;;;;;5013713;28;20092;-63
2024/01/17 04:02:56;;;;;;;39.78;21.35;;;;;;;;;;5014347;28;20113;-64
2024/01/17 04:05:22;;;;;;;33.80;17.50;;;;;;;;;;5013708;28;20116;-66
2024/01/17 04:07:47;;;;;;;31.98;16.95;;;;;;;;;;4996194;28;20068;-65
2024/01/17 04:10:12;;;;;;;30.30;16.58;;;;;;;;;;5014216;28;20034;-65
2024/01/17 04:12:38;;;;;;;32.78;16.70;;;;;;;;;;4996103;28;20026;-64
2024/01/17 04:15:03;;;;;;;30.98;18.30;;;;;;;;;;4996128;28;20033;-64
2024/01/17 04:17:29;;;;;;;42.08;21.63;;;;;;;;;;4979989;28;20034;-64
2024/01/17 04:19:54;;;;;;;75.43;42.55;;;;;;;;;;5014079;28;20088;-64
2024/01/17 04:22:19;;;;;;;80.80;45.60;;;;;;;;;;5014465;28;20057;-67
2024/01/17 04:24:45;;;;;;;86.47;50.95;;;;;;;;;;5017873;28;20125;-65
2024/01/17 04:27:10;;;;;;;65.20;37.95;;;;;;;;;;5017572;28;20072;-62
2024/01/17 04:29:36;;;;;;;56.33;34.38;;;;;;;;;;5000187;28;20152;-61
2024/01/17 04:32:01;;;;;;;52.42;28.05;;;;;;;;;;5017389;28;20112;-60
2024/01/17 04:34:27;;;;;;;54.72;28.85;;;;;;;;;;4999832;28;20076;-61
2024/01/17 04:36:52;;;;;;;54.00;27.35;;;;;;;;;;5015969;28;20037;-61
2024/01/17 04:39:19;;;;;;;70.38;33.75;;;;;;;;;;5016396;28;20033;-61
2024/01/17 04:41:45;;;;;;;76.28;35.30;;;;;;;;;;5017028;28;20052;-60
2024/01/17 04:44:10;;;;;;;73.30;35.30;;;;;;;;;;4999730;28;20478;-61
2024/01/17 04:46:36;;;;;;;71.93;36.22;;;;;;;;;;5016925;28;20018;-61
2024/01/17 04:49:02;;;;;;;56.60;28.95;;;;;;;;;;4998589;28;20096;-61
2024/01/17 04:51:28;;;;;;;56.83;27.67;;;;;;;;;;5017267;28;20470;-61
2024/01/17 04:53:54;;;;;;;64.93;30.52;;;;;;;;;;5016038;28;20084;-61
2024/01/17 04:56:19;;;;;;;99.15;40.72;;;;;;;;;;5015980;28;20034;-69
2024/01/17 04:58:45;;;;;;;60.63;28.02;;;;;;;;;;5015481;28;20489;-68
2024/01/17 05:01:10;;;;;;;61.83;27.67;;;;;;;;;;4998224;28;20036;-68
2024/01/17 05:03:36;;;;;;;59.20;26.67;;;;;;;;;;5015250;28;20470;-68
2024/01/17 05:06:02;;;;;;;50.95;22.30;;;;;;;;;;4997960;28;20473;-68
2024/01/17 05:08:28;;;;;;;44.58;21.02;;;;;;;;;;5016760;28;20037;-68
2024/01/17 05:10:54;;;;;;;49.08;21.95;;;;;;;;;;5017048;28;20037;-66
2024/01/17 05:13:20;;;;;;;47.15;21.58;;;;;;;;;;5016577;28;20099;-64
2024/01/17 05:15:46;;;;;;;46.10;22.15;;;;;;;;;;5016543;28;20462;-64
2024/01/17 05:18:11;;;;;;;49.70;25.70;;;;;;;;;;5017162;28;20037;-63
2024/01/17 05:20:37;;;;;;;47.33;23.95;;;;;;;;;;4999442;28;20029;-66
2024/01/17 05:23:02;;;;;;;47.40;24.08;;;;;;;;;;5016648;28;20022;-63
2024/01/17 05:25:28;;;;;;;44.13;21.30;;;;;;;;;;5016846;28;20377;-63
2024/01/17 05:27:53;;;;;;;49.83;20.30;;;;;;;;;;5016823;28;20038;-63
2024/01/17 05:30:19;;;;;;;47.38;19.67;;;;;;;;;;5016655;28;20034;-57
2024/01/17 05:32:45;;;;;;;45.25;21.60;;;;;;;;;;5017035;28;20029;-56
2024/01/17 05:35:11;;;;;;;51.42;21.20;;;;;;;;;;5015764;28;20033;-57
2024/01/17 05:37:41;;;;;;;61.75;29.33;;;;;;;;;;4998938;28;20029;-63
2024/01/17 05:40:08;;;;;;;67.13;32.47;;;;;;;;;;4998536;28;20490;-64
2024/01/17 05:42:33;;;;;;;55.72;30.83;;;;;;;;;;5016328;28;20069;-63
2024/01/17 05:44:58;;;;;;;56.50;31.23;;;;;;;;;;5016117;28;20425;-63
2024/01/17 05:47:24;;;;;;;53.20;29.17;;;;;;;;;;5016447;28;20088;-63
2024/01/17 05:49:49;;;;;;;64.13;32.08;;;;;;;;;;5016272;28;20033;-63
2024/01/17 05:52:15;;;;;;;58.85;29.70;;;;;;;;;;5016053;28;20022;-63
2024/01/17 05:54:40;;;;;;;46.83;24.02;;;;;;;;;;5015904;28;20056;-63
2024/01/17 05:57:06;;;;;;;48.80;24.80;;;;;;;;;;5016235;28;20390;-63
2024/01/17 05:59:31;;;;;;;48.97;26.80;;;;;;;;;;5015691;28;20030;-63
2024/01/17 06:01:57;;;;;;;51.83;29.83;;;;;;;;;;5016054;28;20117;-63
2024/01/17 06:04:22;;;;;;;59.95;34.10;;;;;;;;;;5015942;28;20108;-63
2024/01/17 06:06:47;;;;;;;73.82;37.22;;;;;;;;;;5016455;28;20088;-63
2024/01/17 06:09:14;;;;;;;70.82;33.95;;;;;;;;;;5016034;28;20087;-64
2024/01/17 06:11:39;;;;;;;78.57;33.08;;;;;;;;;;5016058;28;20116;-63
2024/01/17 06:14:05;;;;;;;57.75;22.23;;;;;;;;;;5015872;28;20038;-63
2024/01/17 06:16:30;;;;;;;54.15;23.33;;;;;;;;;;4997780;28;20040;-63
2024/01/17 06:18:59;;;;;;;63.53;28.33;;;;;;;;;;5015831;28;20084;-63
2024/01/17 06:21:24;;;;;;;61.17;27.25;;;;;;;;;;5015857;28;20048;-63
2024/01/17 06:23:51;;;;;;;62.67;26.60;;;;;;;;;;5015247;28;20446;-63
2024/01/17 06:26:17;;;;;;;67.75;33.28;;;;;;;;;;5015224;28;20072;-63
2024/01/17 06:28:43;;;;;;;91.18;46.05;;;;;;;;;;5015580;28;20026;-63
2024/01/17 06:31:09;;;;;;;86.90;40.80;;;;;;;;;;4996857;28;20409;-63
2024/01/17 06:33:34;;;;;;;111.95;55.50;;;;;;;;;;5013810;28;20120;-63
2024/01/17 06:36:00;;;;;;;92.80;49.30;;;;;;;;;;5013531;28;20120;-64
2024/01/17 06:38:25;;;;;;;65.10;28.95;;;;;;;;;;5013426;28;20065;-63
2024/01/17 06:40:50;;;;;;;67.45;34.05;;;;;;;;;;5013273;28;20120;-63
2024/01/17 06:43:16;;;;;;;53.03;25.77;;;;;;;;;;5013315;28;20065;-63
2024/01/17 06:45:41;;;;;;;127.32;61.00;;;;;;;;;;5014113;28;20030;-63
2024/01/17 06:48:07;;;;;;;136.55;77.82;;;;;;;;;;5015472;28;20029;-63
2024/01/17 06:50:32;;;;;;;120.95;62.50;;;;;;;;;;5015166;28;20030;-63
2024/01/17 06:52:57;;;;;;;132.90;54.70;;;;;;;;;;4997198;28;20057;-63
2024/01/17 06:55:23;;;;;;;114.05;46.05;;;;;;;;;;5015025;28;20116;-63
2024/01/17 06:57:48;;;;;;;63.75;29.90;;;;;;;;;;5015083;28;20030;-63
2024/01/17 07:00:14;;;;;;;45.13;24.02;;;;;;;;;;5014912;28;20034;-63
2024/01/17 07:02:39;;;;;;;31.40;17.88;;;;;;;;;;4997103;28;20018;-62
2024/01/17 07:05:05;;;;;;;26.38;13.93;;;;;;;;;;5014614;28;20134;-62
2024/01/17 07:07:31;;;;;;;33.88;17.27;;;;;;;;;;4997060;28;20034;-62
2024/01/17 07:09:56;;;;;;;38.03;19.17;;;;;;;;;;5014537;28;20058;-62
2024/01/17 07:12:21;;;;;;;24.92;13.98;;;;;;;;;;4996917;28;20100;-62
2024/01/17 07:14:48;;;;;;;24.75;14.02;;;;;;;;;;5014516;28;20548;-62
2024/01/17 07:17:13;;;;;;;31.17;16.35;;;;;;;;;;5014699;28;20038;-62
2024/01/17 07:19:39;;;;;;;39.10;19.67;;;;;;;;;;5014578;28;20030;-62
2024/01/17 07:22:06;;;;;;;32.25;17.83;;;;;;;;;;5014351;28;20018;-62
2024/01/17 07:24:31;;;;;;;32.47;18.00;;;;;;;;;;4996667;28;20120;-62
2024/01/17 07:26:57;;;;;;;41.15;23.17;;;;;;;;;;5014819;28;20109;-62
2024/01/17 07:29:22;;;;;;;26.27;16.98;;;;;;;;;;5014224;28;20053;-63
2024/01/17 07:31:47;;;;;;;24.60;14.52;;;;;;;;;;4996775;28;20099;-62
2024/01/17 07:34:13;;;;;;;28.80;15.52;;;;;;;;;;5014402;28;20026;-62
2024/01/17 07:36:38;;;;;;;25.35;14.63;;;;;;;;;;5014148;28;20029;-62
2024/01/17 07:39:05;;;;;;;29.10;16.30;;;;;;;;;;4996893;28;20034;-63
2024/01/17 07:41:30;;;;;;;30.67;16.27;;;;;;;;;;5014535;28;20030;-62
2024/01/17 07:43:55;;;;;;;28.38;15.23;;;;;;;;;;4996837;28;20037;-62
2024/01/17 07:46:22;;;;;;;36.95;21.45;;;;;;;;;;4996379;28;20481;-62
2024/01/17 07:48:47;;;;;;;30.13;18.35;;;;;;;;;;4996648;28;20026;-63
2024/01/17 07:51:13;;;;;;;33.42;19.15;;;;;;;;;;4996347;28;20029;-62
2024/01/17 07:53:38;;;;;;;43.78;20.60;;;;;;;;;;4996275;28;20393;-62
2024/01/17 07:56:04;;;;;;;60.08;27.00;;;;;;;;;;5013857;28;20033;-63
2024/01/17 07:58:29;;;;;;;63.90;25.20;;;;;;;;;;5013829;28;20040;-62
2024/01/17 08:00:55;;;;;;;65.60;28.23;;;;;;;;;;5013989;28;20037;-63
2024/01/17 08:03:20;;;;;;;85.38;36.33;;;;;;;;;;5014067;28;20092;-63
2024/01/17 08:05:46;;;;;;;96.85;40.13;;;;;;;;;;4996114;28;20018;-62
2024/01/17 08:08:11;;;;;;;109.07;41.72;;;;;;;;;;5013990;28;20477;-63
2024/01/17 08:10:37;;;;;;;127.18;49.92;;;;;;;;;;5013996;28;20040;-62
2024/01/17 08:13:04;;;;;;;145.32;59.22;;;;;;;;;;5013662;28;20076;-63
2024/01/17 08:15:30;;;;;;;151.65;68.78;;;;;;;;;;5013662;28;20390;-63
2024/01/17 08:17:55;;;;;;;75.68;40.85;;;;;;;;;;4996172;28;20034;-63
2024/01/17 08:20:21;;;;;;;82.07;40.42;;;;;;;;;;5014095;28;20042;-63
2024/01/17 08:22:47;;;;;;;78.95;40.67;;;;;;;;;;5013919;28;20101;-63
2024/01/17 08:25:13;;;;;;;62.88;37.10;;;;;;;;;;5013438;28;20474;-63
2024/01/17 08:27:38;;;;;;;44.83;26.83;;;;;;;;;;4996355;28;20034;-63
2024/01/17 08:30:04;;;;;;;38.97;20.67;;;;;;;;;;5013586;28;20489;-63
2024/01/17 08:32:30;;;;;;;30.08;20.35;;;;;;;;;;4963909;28;20042;-63
2024/01/17 08:34:55;;;;;;;25.02;15.27;;;;;;;;;;4996011;28;20481;-63
2024/01/17 08:37:21;;;;;;;25.83;16.88;;;;;;;;;;5014029;28;20042;-63
2024/01/17 08:39:46;;;;;;;22.08;14.93;;;;;;;;;;4995841;28;20052;-63
2024/01/17 08:42:12;;;;;;;17.23;11.80;;;;;;;;;;5013975;28;20034;-62
2024/01/17 08:44:40;;;;;;;21.55;12.20;;;;;;;;;;5013741;28;20029;-62
2024/01/17 08:47:07;;;;;;;28.98;17.75;;;;;;;;;;5013466;28;20385;-63
2024/01/17 08:49:33;;;;;;;27.65;16.30;;;;;;;;;;4995768;28;20117;-63
2024/01/17 08:51:59;;;;;;;31.23;16.77;;;;;;;;;;5013884;28;20117;-63
2024/01/17 08:54:25;;;;;;;37.95;22.10;;;;;;;;;;5013300;28;20037;-63
2024/01/17 08:56:51;;;;;;;45.85;22.95;;;;;;;;;;5013592;28;20034;-62
2024/01/17 08:59:16;;;;;;;55.60;24.02;;;;;;;;;;5013576;28;20037;-62
2024/01/17 09:01:41;;;;;;;46.97;21.58;;;;;;;;;;5013429;28;20100;-63
2024/01/17 09:04:07;;;;;;;36.30;16.17;;;;;;;;;;5013770;28;20100;-62
2024/01/17 09:06:32;;;;;;;37.65;16.70;;;;;;;;;;5013511;28;20026;-62
2024/01/17 09:08:57;;;;;;;24.38;14.70;;;;;;;;;;5013144;28;20455;-63
2024/01/17 09:11:23;;;;;;;29.77;15.65;;;;;;;;;;5016730;28;20359;-62
2024/01/17 09:13:48;;;;;;;25.95;14.57;;;;;;;;;;5016749;28;20551;-62
2024/01/17 09:16:14;;;;;;;22.27;14.15;;;;;;;;;;4999091;28;20474;-62
2024/01/17 09:18:39;;;;;;;30.90;19.95;;;;;;;;;;5016933;28;20026;-62
2024/01/17 09:21:05;;;;;;;36.88;16.65;;;;;;;;;;5017046;28;20041;-62
2024/01/17 09:23:32;;;;;;;31.08;14.93;;;;;;;;;;5016502;28;20026;-62
2024/01/17 09:25:57;;;;;;;28.23;13.63;;;;;;;;;;5016453;28;20046;-62
2024/01/17 09:28:22;;;;;;;25.85;15.05;;;;;;;;;;5016458;28;20497;-62
2024/01/17 09:30:48;;;;;;;31.60;15.65;;;;;;;;;;4999506;28;20034;-62
2024/01/17 09:33:15;;;;;;;25.75;13.20;;;;;;;;;;5016348;28;20041;-62
2024/01/17 09:35:44;;;;;;;24.63;12.05;;;;;;;;;;5016612;28;20030;-62
2024/01/17 09:38:11;;;;;;;25.88;13.25;;;;;;;;;;4998775;28;20038;-62
2024/01/17 09:40:37;;;;;;;28.75;14.85;;;;;;;;;;5016178;28;20037;-62
2024/01/17 09:43:04;;;;;;;25.17;13.90;;;;;;;;;;5016184;28;20449;-62
2024/01/17 09:45:29;;;;;;;26.17;14.13;;;;;;;;;;4998583;28;20033;-62
2024/01/17 09:47:55;;;;;;;46.20;22.35;;;;;;;;;;5016342;28;20042;-62
2024/01/17 09:50:21;;;;;;;24.60;14.80;;;;;;;;;;5016341;28;20037;-62
2024/01/17 09:52:48;;;;;;;18.80;12.10;;;;;;;;;;4998384;28;20037;-63
2024/01/17 09:55:15;;;;;;;28.10;16.80;;;;;;;;;;5016203;28;20044;-62
2024/01/17 09:57:44;;;;;;;32.97;21.15;;;;;;;;;;5016435;28;20013;-62
2024/01/17 10:00:10;;;;;;;16.45;10.43;;;;;;;;;;5016021;28;20125;-62
2024/01/17 10:02:37;;;;;;;14.43;10.10;;;;;;;;;;5015787;28;20046;-62
2024/01/17 10:05:04;;;;;;;20.02;12.85;;;;;;;;;;4998526;28;20442;-62
2024/01/17 10:07:30;;;;;;;25.13;12.68;;;;;;;;;;5015969;28;20022;-62
2024/01/17 10:09:57;;;;;;;25.95;13.32;;;;;;;;;;4998498;28;20092;-63
2024/01/17 10:12:22;;;;;;;27.20;13.45;;;;;;;;;;5015863;28;20034;-62
2024/01/17 10:14:47;;;;;;;27.60;14.27;;;;;;;;;;5053115;23;20061;-68
2024/01/17 10:17:21;;;;;;;13.73;9.23;;;;;;;;;;5054332;23;21351;-68
2024/01/17 10:19:47;;;;;;;13.70;9.02;;;;;;;;;;5051733;23;20045;-63
2024/01/17 10:22:27;;;;;;;11.70;8.65;;;;;;;;;;5039996;22;20115;-68
2024/01/17 10:24:52;;;;;;;11.90;8.07;;;;;;;;;;5034246;28;20045;-68
2024/01/17 10:27:18;;;;;;;12.65;8.60;;;;;;;;;;5035158;28;20087;-68
2024/01/17 10:29:43;;;;;;;13.80;9.68;;;;;;;;;;5035131;28;20484;-68
2024/01/17 10:32:09;;;;;;;12.82;7.47;;;;;;;;;;5035085;28;20057;-68
2024/01/17 10:34:36;;;;;;;9.30;6.63;;;;;;;;;;5035017;28;20461;-68
2024/01/17 10:37:05;;;;;;;12.10;6.90;;;;;;;;;;5034973;28;20037;-68
2024/01/17 10:39:30;;;;;;;8.93;6.25;;;;;;;;;;5034849;28;20044;-68
2024/01/17 10:41:57;;;;;;;9.07;6.50;;;;;;;;;;5035138;28;20029;-68
2024/01/17 10:44:23;;;;;;;11.05;7.72;;;;;;;;;;5017093;28;20032;-69
2024/01/17 10:46:50;;;;;;;12.32;7.03;;;;;;;;;;5034753;28;20017;-69
2024/01/17 10:49:16;;;;;;;12.73;8.13;;;;;;;;;;5034970;28;20029;-68
2024/01/17 10:51:44;;;;;;;14.23;9.23;;;;;;;;;;5017402;28;20045;-69
2024/01/17 10:54:12;;;;;;;11.85;6.65;;;;;;;;;;5017280;28;20029;-68
2024/01/17 10:56:41;;;;;;;8.77;6.38;;;;;;;;;;5034907;28;20100;-68
2024/01/17 10:59:07;;;;;;;22.60;12.93;;;;;;;;;;5034848;28;20030;-68
2024/01/17 11:01:37;;;;;;;10.63;7.55;;;;;;;;;;5017088;28;20044;-68
2024/01/17 11:04:16;;;;;;;14.63;8.98;;;;;;;;;;5034760;28;20029;-68
2024/01/17 11:06:42;;;;;;;11.32;7.20;;;;;;;;;;5034716;28;20033;-68
2024/01/17 11:09:10;;;;;;;18.75;10.30;;;;;;;;;;5034359;28;20027;-68
2024/01/17 11:11:38;;;;;;;33.45;16.42;;;;;;;;;;5034601;28;20115;-68
2024/01/17 11:14:04;;;;;;;13.88;8.30;;;;;;;;;;5034287;28;20034;-68
2024/01/17 11:16:30;;;;;;;45.90;21.38;;;;;;;;;;5034232;28;20041;-68
2024/01/17 11:18:56;;;;;;;16.00;8.45;;;;;;;;;;5016861;28;20068;-69
2024/01/17 11:21:23;;;;;;;30.17;16.00;;;;;;;;;;5034388;28;20029;-69
2024/01/17 11:24:08;;;;;;;13.50;8.25;;;;;;;;;;5016450;28;20477;-68
2024/01/17 11:26:35;;;;;;;12.60;7.70;;;;;;;;;;5034372;28;20025;-68
2024/01/17 11:29:20;;;;;;;11.55;7.65;;;;;;;;;;5016395;28;20108;-68
2024/01/17 11:31:59;;;;;;;16.35;9.68;;;;;;;;;;5034198;28;20037;-68
2024/01/17 11:34:24;;;;;;;13.65;9.30;;;;;;;;;;5033935;28;20039;-68
2024/01/17 11:36:52;;;;;;;11.65;7.13;;;;;;;;;;5034221;28;20116;-69
2024/01/17 11:39:18;;;;;;;14.27;8.13;;;;;;;;;;5033890;28;20022;-68
2024/01/17 11:41:45;;;;;;;16.00;9.40;;;;;;;;;;5033774;28;20037;-68
2024/01/17 11:44:11;;;;;;;16.23;10.40;;;;;;;;;;5049586;28;20025;-68
2024/01/17 11:46:36;;;;;;;18.00;10.63;;;;;;;;;;5033810;28;20026;-68
2024/01/17 11:49:03;;;;;;;22.83;11.75;;;;;;;;;;5034077;28;20049;-68
2024/01/17 11:51:28;;;;;;;20.35;11.35;;;;;;;;;;5033735;28;20061;-68
2024/01/17 11:53:55;;;;;;;16.95;9.70;;;;;;;;;;5033954;28;20071;-68
2024/01/17 11:56:20;;;;;;;14.55;8.80;;;;;;;;;;5033664;28;20556;-68
2024/01/17 11:58:47;;;;;;;34.05;19.75;;;;;;;;;;5033609;28;20114;-68
2024/01/17 12:01:17;;;;;;;47.50;26.80;;;;;;;;;;5015883;28;20025;-68
2024/01/17 12:03:42;;;;;;;72.45;39.08;;;;;;;;;;5034126;28;20091;-68
2024/01/17 12:06:09;;;;;;;38.97;18.60;;;;;;;;;;5048873;28;20029;-68
2024/01/17 12:08:35;;;;;;;48.58;23.92;;;;;;;;;;5033591;28;20099;-68
2024/01/17 12:11:01;;;;;;;25.67;14.43;;;;;;;;;;4999430;28;20041;-68
2024/01/17 12:13:27;;;;;;;33.22;18.58;;;;;;;;;;5048863;28;20034;-68
2024/01/17 12:15:54;;;;;;;21.00;12.50;;;;;;;;;;5033491;28;20108;-68
2024/01/17 12:18:20;;;;;;;51.38;28.38;;;;;;;;;;5016077;28;20046;-68
2024/01/17 12:20:50;;;;;;;22.60;14.63;;;;;;;;;;5033603;28;20025;-68
2024/01/17 12:23:17;;;;;;;33.92;19.33;;;;;;;;;;5048559;28;20048;-68
2024/01/17 12:25:43;;;;;;;68.53;33.05;;;;;;;;;;5033654;28;20021;-68
2024/01/17 12:28:09;;;;;;;71.70;34.42;;;;;;;;;;5033578;28;20441;-68
2024/01/17 12:30:35;;;;;;;76.95;37.63;;;;;;;;;;5033651;28;20052;-68
2024/01/17 12:33:01;;;;;;;71.25;34.72;;;;;;;;;;5048613;28;20087;-68
2024/01/17 12:35:26;;;;;;;24.85;13.38;;;;;;;;;;5048637;28;20038;-68
2024/01/17 12:37:51;;;;;;;15.35;9.20;;;;;;;;;;5015599;28;20031;-68
2024/01/17 12:40:17;;;;;;;12.63;8.43;;;;;;;;;;5033443;28;20469;-68
2024/01/17 12:42:47;;;;;;;12.52;7.93;;;;;;;;;;5033228;28;20453;-68
2024/01/17 12:45:13;;;;;;;15.60;8.38;;;;;;;;;;5035196;28;20061;-69
2024/01/17 12:47:38;;;;;;;14.48;8.23;;;;;;;;;;5037025;28;20060;-68
2024/01/17 12:50:04;;;;;;;30.95;16.35;;;;;;;;;;5037033;28;20434;-68
2024/01/17 12:52:29;;;;;;;25.48;15.73;;;;;;;;;;5019618;28;20034;-68
2024/01/17 12:54:55;;;;;;;28.02;16.67;;;;;;;;;;5036902;28;20029;-68
2024/01/17 12:57:20;;;;;;;20.52;14.30;;;;;;;;;;5036875;28;20465;-69
2024/01/17 12:59:46;;;;;;;20.20;12.30;;;;;;;;;;5019136;28;20061;-69
2024/01/17 13:02:14;;;;;;;25.48;12.95;;;;;;;;;;5036794;28;20453;-69
2024/01/17 13:04:40;;;;;;;24.80;13.63;;;;;;;;;;5036747;28;20076;-69
2024/01/17 13:07:05;;;;;;;27.85;14.63;;;;;;;;;;5019374;28;20034;-68
2024/01/17 13:09:32;;;;;;;31.08;15.57;;;;;;;;;;5036677;28;20025;-68
2024/01/17 13:11:58;;;;;;;21.85;14.02;;;;;;;;;;5051995;28;20460;-69
2024/01/17 13:14:24;;;;;;;20.15;13.13;;;;;;;;;;5036529;28;20025;-69
2024/01/17 13:16:49;;;;;;;27.83;16.23;;;;;;;;;;5036510;28;20124;-69
2024/01/17 13:19:15;;;;;;;31.00;17.75;;;;;;;;;;5036733;28;20107;-68
2024/01/17 13:21:44;;;;;;;31.20;17.77;;;;;;;;;;5018735;28;20503;-70
2024/01/17 13:24:10;;;;;;;31.98;17.65;;;;;;;;;;5018629;28;20045;-69
2024/01/17 13:26:40;;;;;;;29.73;17.75;;;;;;;;;;5036884;28;20100;-69
2024/01/17 13:29:05;;;;;;;29.35;17.65;;;;;;;;;;5036570;28;20120;-69
2024/01/17 13:31:31;;;;;;;37.05;20.50;;;;;;;;;;5036245;28;20060;-69
2024/01/17 13:33:58;;;;;;;26.75;15.80;;;;;;;;;;5036198;28;20068;-68
2024/01/17 13:36:27;;;;;;;27.05;14.88;;;;;;;;;;5036497;28;20100;-68
2024/01/17 13:38:52;;;;;;;33.40;19.77;;;;;;;;;;5051436;28;20029;-69
2024/01/17 13:41:21;;;;;;;29.45;16.38;;;;;;;;;;5036238;28;20039;-68
2024/01/17 13:43:47;;;;;;;31.95;17.02;;;;;;;;;;5036534;28;20029;-69
2024/01/17 13:46:12;;;;;;;31.98;17.88;;;;;;;;;;5035965;28;20028;-68
2024/01/17 13:48:37;;;;;;;30.92;17.85;;;;;;;;;;5035878;28;20457;-64
2024/01/17 13:51:03;;;;;;;43.72;28.77;;;;;;;;;;5035891;28;20033;-64
2024/01/17 13:53:29;;;;;;;30.55;19.85;;;;;;;;;;5036123;28;20037;-65
2024/01/17 13:55:56;;;;;;;27.17;17.25;;;;;;;;;;5035250;28;20034;-65
2024/01/17 13:58:22;;;;;;;23.25;14.23;;;;;;;;;;5036060;28;20025;-65
2024/01/17 14:00:48;;;;;;;20.80;13.57;;;;;;;;;;5035557;28;20034;-64
2024/01/17 14:03:14;;;;;;;30.33;19.08;;;;;;;;;;5035183;28;20545;-64
2024/01/17 14:05:39;;;;;;;24.15;16.00;;;;;;;;;;5034406;28;20152;-65
2024/01/17 14:08:06;;;;;;;27.80;18.23;;;;;;;;;;5035562;28;20401;-65
2024/01/17 14:10:31;;;;;;;31.48;17.73;;;;;;;;;;5035802;28;20103;-61
2024/01/17 14:12:59;;;;;;;78.22;39.67;;;;;;;;;;5035708;28;20033;-62